Lahaina, HI (96761)

12:14 PM HST on August 27, 2016 (GMT -1000)
West Mahi Pua | | Change Station

Elev 256 ft 20.92 °N, 156.68 °W | Updated 4 minutes ago

Scattered Clouds
Scattered Clouds
88.3 °F
Feels Like 93 °F
N
9.4
Wind Variable Wind from NNE

Today
High -- | Low -- °F
--% Chance of Precip.
Yesterday
High -- | Low -- °F
Precip. -- in
Pressure 29.97 in
Visibility 15.0 miles
Clouds Few 3000 ft
Scattered Clouds 4500 ft
Heat Index 93 °F
Dew Point 70 °F
Humidity 54%
Rainfall 0.00 in
Snow Depth Not available.
6:09 AM 6:46 PM
Waning Crescent, 21% visible
METAR PHJH 272145Z 03013G24KT 15SM FEW030 SCT045 29/20 A2997
Pressure 29.97 in
Visibility 15.0 miles
Clouds Few 3000 ft
Scattered Clouds 4500 ft
Heat Index 93 °F
Dew Point 70 °F
Humidity 54%
Rainfall 0.00 in
Snow Depth Not available.
6:09 AM 6:46 PM
Waning Crescent, 21% visible
METAR PHJH 272145Z 03013G24KT 15SM FEW030 SCT045 29/20 A2997

10-Day Weather Forecast

Almanac

Astronomy

Aug. 27, 2016 Rise Set
Actual Time
Civil Twilight
Nautical Twilight
Astronomical Twilight
Moon
Length of Visible Light
Length of Day
Tomorrow will be .
, % of the Moon is Illuminated

Today's Extremes

State Highs State Lows

Community

WunderPhotos

Upload Photos

1,935,455 photos uploaded!

WunderBlog® & News

Nearby

Air Quality

  Air Quality AQ Index Pollutant
Not available.

Snow Depth

Station Depth Elevation

Earthquake Activity

City Distance Mag. Time & Date
Minimum magnitude displayed is 2.5.

Coastal Water Temperatures

Place Temperature

Stations

Nearby Weather Stations

Station Location Temp. Windchill Dew Point Humidity Wind Precip. Elev Updated Type
                   

Watches & Warnings

There are currently no watches in effect.